createdAt,value
2022-08-18T00:00:59.716Z,0
2022-08-18T00:04:03.046Z,0
2022-08-18T00:06:58.798Z,0
2022-08-18T00:09:59.096Z,0
2022-08-18T00:13:01.416Z,0.6666666666666666
2022-08-18T00:15:58.878Z,0
2022-08-18T00:18:58.967Z,0.3333333333333333
2022-08-18T00:21:59.367Z,0.3333333333333333
2022-08-18T00:24:58.876Z,0.3333333333333333
2022-08-18T00:27:59.504Z,0
2022-08-18T00:30:58.631Z,0
2022-08-18T00:33:58.998Z,0
2022-08-18T00:36:59.124Z,0.6666666666666666
2022-08-18T00:39:58.443Z,0
2022-08-18T00:42:58.368Z,0
2022-08-18T00:45:59.340Z,0.3333333333333333
2022-08-18T00:48:58.415Z,1
2022-08-18T00:51:59.360Z,0
2022-08-18T00:54:59.195Z,0
2022-08-18T00:57:58.414Z,0
2022-08-18T01:00:58.972Z,0
2022-08-18T01:03:59.025Z,0
2022-08-18T01:06:58.680Z,0.3333333333333333
2022-08-18T01:09:58.864Z,0
2022-08-18T01:12:59.133Z,0
2022-08-18T01:15:58.840Z,0
2022-08-18T01:18:59.866Z,0
2022-08-18T01:21:58.846Z,0
2022-08-18T01:24:58.557Z,0
2022-08-18T01:28:00.806Z,0
2022-08-18T01:30:59.857Z,0
2022-08-18T01:33:58.682Z,0
2022-08-18T01:36:58.615Z,0
2022-08-18T01:41:23.420Z,0
2022-08-18T01:42:58.681Z,0
2022-08-18T01:45:58.461Z,0
2022-08-18T01:48:59.069Z,0.3333333333333333
2022-08-18T01:51:59.394Z,0.3333333333333333
2022-08-18T01:54:58.320Z,0
2022-08-18T01:57:58.440Z,0
2022-08-18T02:00:59.239Z,0
2022-08-18T02:04:16.674Z,0
2022-08-18T02:06:59.269Z,0
2022-08-18T02:09:59.434Z,0
2022-08-18T02:12:59.120Z,0
2022-08-18T02:16:00.041Z,0.3333333333333333
2022-08-18T02:18:59.250Z,0
2022-08-18T02:21:59.006Z,0
2022-08-18T02:24:58.836Z,0
2022-08-18T02:27:58.849Z,0
2022-08-18T02:30:58.750Z,0
2022-08-18T02:33:59.420Z,0
2022-08-18T02:36:58.925Z,0.6666666666666666
2022-08-18T02:39:59.284Z,0
2022-08-18T02:42:58.724Z,0
2022-08-18T02:45:59.665Z,0.6666666666666666
2022-08-18T02:48:59.475Z,1
2022-08-18T02:51:58.841Z,0
2022-08-18T02:54:59.346Z,0
2022-08-18T02:57:58.516Z,0
2022-08-18T03:00:58.660Z,0
2022-08-18T03:03:58.538Z,0.3333333333333333
2022-08-18T03:06:58.534Z,0
2022-08-18T03:10:02.983Z,0
2022-08-18T03:12:59.371Z,0
2022-08-18T03:16:00.288Z,0
2022-08-18T03:18:58.177Z,0
2022-08-18T03:21:58.560Z,0
2022-08-18T03:24:58.247Z,0
2022-08-18T03:27:58.120Z,0
2022-08-18T03:30:59.102Z,0
2022-08-18T03:33:59.624Z,0
2022-08-18T03:36:59.310Z,0
2022-08-18T03:39:58.836Z,0
2022-08-18T03:42:58.816Z,0
2022-08-18T03:45:59.372Z,0
2022-08-18T03:48:58.983Z,0.3333333333333333
2022-08-18T03:51:59.412Z,0
2022-08-18T03:54:59.123Z,0
2022-08-18T03:57:58.849Z,0.3333333333333333
2022-08-18T04:00:59.538Z,1.3333333333333333
2022-08-18T04:03:58.385Z,3.3333333333333335
2022-08-18T04:06:58.833Z,5
2022-08-18T04:09:58.981Z,8
2022-08-18T04:12:59.552Z,15.333333333333334
2022-08-18T04:15:59.289Z,21.666666666666668
2022-08-18T04:18:59.674Z,28
2022-08-18T04:21:58.805Z,36.666666666666664
2022-08-18T04:24:58.880Z,50
2022-08-18T04:27:58.996Z,63.666666666666664
2022-08-18T04:30:59.347Z,75.66666666666667
2022-08-18T04:33:59.121Z,89.66666666666667
2022-08-18T04:36:58.895Z,104
2022-08-18T04:39:59.211Z,120
2022-08-18T04:42:58.994Z,129.66666666666666
2022-08-18T04:46:00.036Z,144
2022-08-18T04:48:58.900Z,161.33333333333334
2022-08-18T04:52:37.170Z,186
2022-08-18T04:54:58.815Z,205.33333333333334
2022-08-18T04:57:59.583Z,218
2022-08-18T05:01:00.526Z,222.66666666666666
2022-08-18T05:03:59.645Z,242.33333333333334
2022-08-18T05:06:58.760Z,265.3333333333333
2022-08-18T05:09:59.573Z,281.6666666666667
2022-08-18T05:12:59.610Z,311.6666666666667
2022-08-18T05:16:09.582Z,351.6666666666667
2022-08-18T05:18:58.952Z,399
2022-08-18T05:22:00.010Z,436.6666666666667
2022-08-18T05:24:59.346Z,438.3333333333333
2022-08-18T05:27:59.412Z,486.3333333333333
2022-08-18T05:31:00.666Z,512
2022-08-18T05:33:58.661Z,531.3333333333334
2022-08-18T05:36:59.786Z,605.3333333333334
2022-08-18T05:39:59.906Z,593
2022-08-18T05:42:59.242Z,568.3333333333334
2022-08-18T05:45:59.773Z,617
2022-08-18T05:48:59.216Z,632.6666666666666
2022-08-18T05:51:59.147Z,540
2022-08-18T05:54:59.020Z,411
2022-08-18T05:58:00.001Z,397
2022-08-18T06:01:00.207Z,376.6666666666667
2022-08-18T06:03:59.027Z,332.6666666666667
2022-08-18T06:06:59.815Z,306.6666666666667
2022-08-18T06:09:59.924Z,313
2022-08-18T06:12:59.171Z,379
2022-08-18T06:15:59.505Z,406.6666666666667
2022-08-18T06:18:59.756Z,453.6666666666667
2022-08-18T06:21:59.627Z,582.3333333333334
2022-08-18T06:24:58.985Z,789
2022-08-18T06:27:59.504Z,806.6666666666666
2022-08-18T06:30:59.563Z,863.6666666666666
2022-08-18T06:33:58.771Z,706
2022-08-18T06:36:58.386Z,799.6666666666666
2022-08-18T06:39:59.095Z,708.6666666666666
2022-08-18T06:42:59.816Z,661
2022-08-18T06:45:59.250Z,636
2022-08-18T06:48:59.373Z,610.3333333333334
2022-08-18T06:51:58.942Z,545.6666666666666
2022-08-18T06:54:58.609Z,550.6666666666666
2022-08-18T06:57:58.481Z,551.3333333333334
2022-08-18T07:00:59.674Z,514.3333333333334
2022-08-18T07:03:59.066Z,513
2022-08-18T07:06:59.315Z,501
2022-08-18T07:09:59.067Z,485.6666666666667
2022-08-18T07:12:59.311Z,503
2022-08-18T07:15:59.001Z,565.6666666666666
2022-08-18T07:18:59.023Z,657.3333333333334
2022-08-18T07:21:58.251Z,763.3333333333334
2022-08-18T07:25:04.528Z,792.6666666666666
2022-08-18T07:27:59.406Z,796.6666666666666
2022-08-18T07:31:15.874Z,854.3333333333334
2022-08-18T07:33:58.724Z,933.6666666666666
2022-08-18T07:36:58.595Z,932
2022-08-18T07:39:59.094Z,915
2022-08-18T07:43:01.339Z,909.3333333333334
2022-08-18T07:45:58.610Z,896
2022-08-18T07:48:59.591Z,896.3333333333334
2022-08-18T07:51:59.207Z,886
2022-08-18T07:54:59.367Z,900.3333333333334
2022-08-18T07:57:59.320Z,910.3333333333334
2022-08-18T08:01:00.151Z,923.3333333333334
2022-08-18T08:03:58.460Z,933
2022-08-18T08:07:22.801Z,934.6666666666666
2022-08-18T08:09:58.637Z,928
2022-08-18T08:13:08.893Z,928
2022-08-18T08:15:58.454Z,925.6666666666666
2022-08-18T08:18:58.221Z,928
2022-08-18T08:21:58.527Z,921
2022-08-18T08:24:58.416Z,932.3333333333334
2022-08-18T08:27:58.739Z,919
2022-08-18T08:31:19.037Z,856
2022-08-18T08:34:01.717Z,730.3333333333334
2022-08-18T08:36:58.861Z,778.6666666666666
2022-08-18T08:39:59.626Z,803
2022-08-18T08:42:58.917Z,782
2022-08-18T08:45:59.317Z,739
2022-08-18T08:48:59.185Z,758
2022-08-18T08:51:58.683Z,781.3333333333334
2022-08-18T08:54:59.325Z,816.3333333333334
2022-08-18T08:57:58.530Z,857
2022-08-18T09:00:58.686Z,890
2022-08-18T09:03:58.597Z,923
2022-08-18T09:06:58.487Z,931.3333333333334
2022-08-18T09:09:59.001Z,929
2022-08-18T09:12:59.071Z,883.3333333333334
2022-08-18T09:15:58.461Z,835
2022-08-18T09:18:58.326Z,793.6666666666666
2022-08-18T09:21:59.292Z,809
2022-08-18T09:24:58.382Z,833.3333333333334
2022-08-18T09:28:10.788Z,866.3333333333334
2022-08-18T09:30:59.330Z,908.6666666666666
2022-08-18T09:34:02.545Z,912
2022-08-18T09:36:58.782Z,900.3333333333334
2022-08-18T09:39:58.973Z,911.6666666666666
2022-08-18T09:42:58.525Z,914.6666666666666
2022-08-18T09:45:59.243Z,928.6666666666666
2022-08-18T09:48:59.438Z,915.3333333333334
2022-08-18T09:51:58.802Z,842.6666666666666
2022-08-18T09:54:59.367Z,921.3333333333334
2022-08-18T09:57:58.851Z,943.3333333333334
2022-08-18T10:00:58.923Z,946.6666666666666
2022-08-18T10:03:59.253Z,957.3333333333334
2022-08-18T10:06:59.136Z,961
2022-08-18T10:09:58.656Z,951.3333333333334
2022-08-18T10:12:59.567Z,939.6666666666666
2022-08-18T10:15:59.052Z,945
2022-08-18T10:18:58.853Z,951.6666666666666
2022-08-18T10:21:59.306Z,955.3333333333334
2022-08-18T10:25:14.100Z,956
2022-08-18T10:27:59.066Z,959
2022-08-18T10:31:06.442Z,960
2022-08-18T10:33:58.348Z,956
2022-08-18T10:36:58.851Z,953
2022-08-18T10:39:59.504Z,946
2022-08-18T10:42:59.074Z,949
2022-08-18T10:46:25.311Z,948.3333333333334
2022-08-18T10:48:58.936Z,929
2022-08-18T10:52:01.167Z,939
2022-08-18T10:54:58.900Z,826
2022-08-18T10:57:58.929Z,841.6666666666666
2022-08-18T11:00:59.217Z,921.6666666666666
2022-08-18T11:06:59.002Z,871.3333333333334
2022-08-18T11:10:28.080Z,845.3333333333334
2022-08-18T11:12:58.977Z,812.3333333333334
2022-08-18T11:15:58.720Z,864.6666666666666
2022-08-18T11:18:58.552Z,922
2022-08-18T11:21:58.693Z,897.6666666666666
2022-08-18T11:24:59.373Z,906.3333333333334
2022-08-18T11:27:58.778Z,918
2022-08-18T11:30:59.642Z,924.3333333333334
2022-08-18T11:33:58.408Z,936.6666666666666
2022-08-18T11:36:58.751Z,944
2022-08-18T11:39:58.888Z,946.3333333333334
2022-08-18T11:42:59.276Z,950
2022-08-18T11:45:59.196Z,947.3333333333334
2022-08-18T11:48:59.168Z,941.6666666666666
2022-08-18T11:52:03.110Z,940
2022-08-18T11:54:59.108Z,946.3333333333334
2022-08-18T11:57:59.647Z,947
2022-08-18T12:01:01.733Z,942.6666666666666
2022-08-18T12:03:58.968Z,938.3333333333334
2022-08-18T12:06:58.467Z,940.6666666666666
2022-08-18T12:10:17.767Z,945
2022-08-18T12:12:59.045Z,949.6666666666666
2022-08-18T12:15:59.006Z,953
2022-08-18T12:18:59.195Z,956
2022-08-18T12:21:58.573Z,957.3333333333334
2022-08-18T12:24:59.493Z,955
2022-08-18T12:27:58.998Z,954
2022-08-18T12:30:59.243Z,948.6666666666666
2022-08-18T12:34:00.089Z,947.3333333333334
2022-08-18T12:36:58.411Z,949.3333333333334
2022-08-18T12:39:58.717Z,948.6666666666666
2022-08-18T12:42:58.947Z,941.3333333333334
2022-08-18T12:45:58.943Z,937.3333333333334
2022-08-18T12:48:58.961Z,930
2022-08-18T12:51:58.651Z,877
2022-08-18T12:54:58.347Z,870.3333333333334
2022-08-18T12:57:59.360Z,755.6666666666666
2022-08-18T13:00:59.047Z,666
2022-08-18T13:04:10.887Z,786.6666666666666
2022-08-18T13:07:01.907Z,713
2022-08-18T13:09:59.547Z,769.3333333333334
2022-08-18T13:12:59.228Z,777.3333333333334
2022-08-18T13:16:01.228Z,781.3333333333334
2022-08-18T13:18:59.314Z,855.6666666666666
2022-08-18T13:21:59.105Z,920.3333333333334
2022-08-18T13:24:59.108Z,932.3333333333334
2022-08-18T13:27:59.016Z,925.6666666666666
2022-08-18T13:30:59.403Z,860
2022-08-18T13:33:59.896Z,866.6666666666666
2022-08-18T13:36:59.229Z,871.3333333333334
2022-08-18T13:39:59.190Z,913
2022-08-18T13:42:59.281Z,855
2022-08-18T13:45:58.722Z,840.3333333333334
2022-08-18T13:48:59.683Z,811.3333333333334
2022-08-18T13:51:58.973Z,808
2022-08-18T13:54:58.569Z,822
2022-08-18T13:57:58.549Z,830.6666666666666
2022-08-18T14:01:16.007Z,830.3333333333334
2022-08-18T14:03:59.051Z,860
2022-08-18T14:07:00.529Z,872
2022-08-18T14:10:04.474Z,899.3333333333334
2022-08-18T14:13:00.193Z,901
2022-08-18T14:15:58.927Z,872.6666666666666
2022-08-18T14:18:59.060Z,815.6666666666666
2022-08-18T14:21:59.163Z,774.6666666666666
2022-08-18T14:24:59.302Z,773
2022-08-18T14:27:58.980Z,781
2022-08-18T14:30:59.139Z,783
2022-08-18T14:34:03.058Z,797
2022-08-18T14:36:59.926Z,802.3333333333334
2022-08-18T14:39:59.427Z,798
2022-08-18T14:42:59.347Z,758
2022-08-18T14:46:00.018Z,692.3333333333334
2022-08-18T14:48:59.273Z,634
2022-08-18T14:51:59.326Z,528.6666666666666
2022-08-18T14:54:59.144Z,461.3333333333333
2022-08-18T14:57:59.618Z,422.3333333333333
2022-08-18T15:00:59.358Z,372
2022-08-18T15:03:59.488Z,344
2022-08-18T15:06:59.599Z,350
2022-08-18T15:10:15.076Z,348
2022-08-18T15:12:58.525Z,362.6666666666667
2022-08-18T15:16:02.038Z,398.3333333333333
2022-08-18T15:18:58.896Z,438.6666666666667
2022-08-18T15:21:59.228Z,475
2022-08-18T15:24:59.027Z,469.3333333333333
2022-08-18T15:27:59.261Z,439
2022-08-18T15:31:17.618Z,403.6666666666667
2022-08-18T15:33:58.928Z,384.3333333333333
2022-08-18T15:37:09.454Z,372.6666666666667
2022-08-18T15:39:59.268Z,354.6666666666667
2022-08-18T15:42:59.070Z,331.3333333333333
2022-08-18T15:45:59.592Z,313
2022-08-18T15:48:59.067Z,301.3333333333333
2022-08-18T15:51:59.511Z,283.3333333333333
2022-08-18T15:55:02.382Z,267
2022-08-18T15:57:59.960Z,245.33333333333334
2022-08-18T16:00:59.936Z,232.66666666666666
2022-08-18T16:03:58.898Z,225
2022-08-18T16:06:59.278Z,211
2022-08-18T16:09:59.406Z,203.66666666666666
2022-08-18T16:13:06.359Z,206.33333333333334
2022-08-18T16:15:59.673Z,200.33333333333334
2022-08-18T16:18:59.088Z,202
2022-08-18T16:21:59.365Z,199.66666666666666
2022-08-18T16:24:59.390Z,193.66666666666666
2022-08-18T16:27:59.159Z,185.66666666666666
2022-08-18T16:30:59.461Z,176.66666666666666
2022-08-18T16:33:59.405Z,175
2022-08-18T16:36:59.401Z,184
2022-08-18T16:39:59.996Z,186.33333333333334
2022-08-18T16:42:59.274Z,170.66666666666666
2022-08-18T16:45:59.256Z,156.33333333333334
2022-08-18T16:48:59.420Z,145.33333333333334
2022-08-18T16:51:59.383Z,134
2022-08-18T16:54:59.404Z,115.33333333333333
2022-08-18T16:57:59.163Z,98.66666666666667
2022-08-18T17:00:59.995Z,93
2022-08-18T17:03:58.862Z,89.33333333333333
2022-08-18T17:06:58.959Z,86.66666666666667
2022-08-18T17:09:59.191Z,84
2022-08-18T17:12:59.725Z,82.33333333333333
2022-08-18T17:15:59.237Z,79.66666666666667
2022-08-18T17:18:58.786Z,76
2022-08-18T17:21:58.766Z,71.66666666666667
2022-08-18T17:24:58.860Z,68
2022-08-18T17:27:59.115Z,61.666666666666664
2022-08-18T17:30:58.631Z,55.333333333333336
2022-08-18T17:33:59.198Z,51.333333333333336
2022-08-18T17:36:58.932Z,48.333333333333336
2022-08-18T17:39:59.772Z,45.333333333333336
2022-08-18T17:42:59.397Z,42.333333333333336
2022-08-18T17:45:59.112Z,39
2022-08-18T17:48:58.728Z,36.666666666666664
2022-08-18T17:52:01.923Z,33.333333333333336
2022-08-18T17:54:58.680Z,30.333333333333332
2022-08-18T17:57:59.282Z,27.333333333333332
2022-08-18T18:01:25.657Z,21.666666666666668
2022-08-18T18:03:59.082Z,19.666666666666668
2022-08-18T18:06:58.440Z,16.333333333333332
2022-08-18T18:09:59.278Z,13.666666666666666
2022-08-18T18:12:59.379Z,11.666666666666666
2022-08-18T18:15:59.495Z,8.666666666666666
2022-08-18T18:19:01.350Z,7.333333333333333
2022-08-18T18:22:01.710Z,4.333333333333333
2022-08-18T18:24:59.600Z,4.666666666666667
2022-08-18T18:27:59.076Z,3
2022-08-18T18:30:59.444Z,2.3333333333333335
2022-08-18T18:33:58.512Z,2.3333333333333335
2022-08-18T18:36:58.888Z,1
2022-08-18T18:39:59.798Z,0
2022-08-18T18:42:58.634Z,0
2022-08-18T18:45:59.490Z,0.3333333333333333
2022-08-18T18:48:58.554Z,0
2022-08-18T18:51:58.575Z,0
2022-08-18T18:54:58.433Z,1.3333333333333333
2022-08-18T18:57:58.604Z,0.3333333333333333
2022-08-18T19:00:59.095Z,0
2022-08-18T19:03:58.306Z,0
2022-08-18T19:06:58.753Z,0
2022-08-18T19:09:59.111Z,0
2022-08-18T19:12:59.670Z,0
2022-08-18T19:15:59.499Z,0
2022-08-18T19:19:38.427Z,0.3333333333333333
2022-08-18T19:22:05.231Z,0
2022-08-18T19:24:58.190Z,0.3333333333333333
2022-08-18T19:27:59.451Z,0
2022-08-18T19:30:59.106Z,0
2022-08-18T19:33:59.315Z,0
2022-08-18T19:36:59.061Z,0
2022-08-18T19:39:59.906Z,0
2022-08-18T19:42:59.240Z,0
2022-08-18T19:45:59.183Z,0
2022-08-18T19:48:59.754Z,0
2022-08-18T19:51:59.304Z,0
2022-08-18T19:54:59.035Z,0
2022-08-18T19:57:59.175Z,0
2022-08-18T20:00:59.342Z,0
2022-08-18T20:03:59.589Z,0
2022-08-18T20:06:59.016Z,0
2022-08-18T20:09:58.614Z,0
2022-08-18T20:12:58.800Z,0
2022-08-18T20:15:58.491Z,0
2022-08-18T20:18:59.756Z,0
2022-08-18T20:21:59.454Z,0
2022-08-18T20:24:59.522Z,0
2022-08-18T20:27:59.043Z,0
2022-08-18T20:30:59.569Z,0
2022-08-18T20:33:58.659Z,0
2022-08-18T20:36:59.028Z,1
2022-08-18T20:39:58.750Z,0
2022-08-18T20:43:07.593Z,0
2022-08-18T20:45:59.332Z,0
2022-08-18T20:48:59.209Z,0
2022-08-18T20:51:59.496Z,0
2022-08-18T20:54:59.042Z,0
2022-08-18T20:57:59.371Z,0.3333333333333333
2022-08-18T21:00:59.294Z,0
2022-08-18T21:03:59.477Z,0
2022-08-18T21:06:58.833Z,0
2022-08-18T21:09:58.569Z,0.3333333333333333
2022-08-18T21:12:59.178Z,0
2022-08-18T21:15:59.229Z,0.3333333333333333
2022-08-18T21:18:59.527Z,0
2022-08-18T21:21:58.789Z,0
2022-08-18T21:24:59.448Z,1.3333333333333333
2022-08-18T21:27:59.310Z,0
2022-08-18T21:31:42.410Z,0
2022-08-18T21:33:59.435Z,1
2022-08-18T21:36:59.230Z,0
2022-08-18T21:39:58.791Z,0.6666666666666666
2022-08-18T21:42:58.457Z,0
2022-08-18T21:46:00.101Z,0
2022-08-18T21:48:59.083Z,0
2022-08-18T21:51:59.626Z,0
2022-08-18T21:54:59.080Z,0.3333333333333333
2022-08-18T21:57:59.357Z,0
2022-08-18T22:00:59.431Z,0
2022-08-18T22:03:58.926Z,0
2022-08-18T22:06:59.128Z,0
2022-08-18T22:09:59.533Z,0
2022-08-18T22:12:58.657Z,0.3333333333333333
2022-08-18T22:15:59.792Z,0
2022-08-18T22:18:58.633Z,0.6666666666666666
2022-08-18T22:21:58.486Z,0
2022-08-18T22:24:58.993Z,0
2022-08-18T22:27:58.577Z,0
2022-08-18T22:30:59.086Z,0
2022-08-18T22:33:58.464Z,0
2022-08-18T22:36:58.461Z,0
2022-08-18T22:39:59.339Z,0
2022-08-18T22:42:58.656Z,0
2022-08-18T22:46:00.017Z,0
2022-08-18T22:48:58.564Z,0
2022-08-18T22:51:59.134Z,0.3333333333333333
2022-08-18T22:54:59.202Z,0
2022-08-18T22:57:58.203Z,0
2022-08-18T23:01:05.320Z,0
2022-08-18T23:03:58.648Z,0
2022-08-18T23:06:59.038Z,0
2022-08-18T23:09:59.888Z,0
2022-08-18T23:13:04.106Z,0
2022-08-18T23:16:12.459Z,0
2022-08-18T23:18:58.498Z,0.3333333333333333
2022-08-18T23:21:58.793Z,0
2022-08-18T23:24:58.764Z,0
2022-08-18T23:27:58.644Z,0
2022-08-18T23:30:58.726Z,0
2022-08-18T23:33:58.596Z,0
2022-08-18T23:36:58.548Z,0
2022-08-18T23:39:59.656Z,0.3333333333333333
2022-08-18T23:42:58.559Z,0
2022-08-18T23:45:59.369Z,0
2022-08-18T23:48:59.421Z,0.3333333333333333
2022-08-18T23:51:59.092Z,0
2022-08-18T23:54:59.297Z,0
2022-08-18T23:57:59.203Z,0
